sensor_id;sensor_type;location;lat;lon;timestamp;P1;durP1;ratioP1;P2;durP2;ratioP2
82417;SDS011;72059;53.734;10.260;2023-08-07T15:00:47;11.90;;;4.22;;
82417;SDS011;72059;53.734;10.260;2023-08-07T15:03:15;14.30;;;4.08;;
82417;SDS011;72059;53.734;10.260;2023-08-07T15:05:43;11.10;;;3.80;;
82417;SDS011;72059;53.734;10.260;2023-08-07T15:08:10;12.98;;;4.10;;
82417;SDS011;72059;53.734;10.260;2023-08-07T15:10:39;11.90;;;3.50;;
82417;SDS011;72059;53.734;10.260;2023-08-07T15:13:07;15.60;;;4.45;;
82417;SDS011;72059;53.734;10.260;2023-08-07T15:15:34;12.37;;;3.58;;
82417;SDS011;72059;53.734;10.260;2023-08-07T15:18:02;17.95;;;4.42;;
82417;SDS011;72059;53.734;10.260;2023-08-07T15:20:33;14.60;;;4.75;;
82417;SDS011;72059;53.734;10.260;2023-08-07T15:23:02;10.20;;;3.90;;
82417;SDS011;72059;53.734;10.260;2023-08-07T15:25:30;15.23;;;4.87;;
82417;SDS011;72059;53.734;10.260;2023-08-07T15:27:57;11.05;;;3.85;;
82417;SDS011;72059;53.734;10.260;2023-08-07T15:30:26;9.78;;;4.80;;
82417;SDS011;72059;53.734;10.260;2023-08-07T15:32:54;10.45;;;4.15;;
82417;SDS011;72059;53.734;10.260;2023-08-07T15:35:22;8.73;;;3.62;;
82417;SDS011;72059;53.734;10.260;2023-08-07T15:37:49;9.55;;;3.45;;
82417;SDS011;72059;53.734;10.260;2023-08-07T15:40:17;11.65;;;4.33;;
82417;SDS011;72059;53.734;10.260;2023-08-07T15:42:44;9.50;;;4.28;;
82417;SDS011;72059;53.734;10.260;2023-08-07T15:45:13;9.93;;;3.67;;
82417;SDS011;72059;53.734;10.260;2023-08-07T15:47:41;11.63;;;3.90;;
82417;SDS011;72059;53.734;10.260;2023-08-07T15:50:09;12.07;;;4.10;;
82417;SDS011;72059;53.734;10.260;2023-08-07T15:52:36;10.08;;;3.58;;
82417;SDS011;72059;53.734;10.260;2023-08-07T15:55:04;11.65;;;3.85;;
82417;SDS011;72059;53.734;10.260;2023-08-07T15:57:31;11.70;;;3.30;;
82417;SDS011;72059;53.734;10.260;2023-08-07T15:59:58;9.80;;;3.45;;
82417;SDS011;72059;53.734;10.260;2023-08-07T16:02:26;6.78;;;3.33;;
82417;SDS011;72059;53.734;10.260;2023-08-07T16:04:53;10.55;;;3.30;;
82417;SDS011;72059;53.734;10.260;2023-08-07T16:07:21;12.88;;;3.75;;
82417;SDS011;72059;53.734;10.260;2023-08-07T16:09:48;9.23;;;2.75;;
82417;SDS011;72059;53.734;10.260;2023-08-07T16:12:16;8.70;;;2.42;;
82417;SDS011;72059;53.734;10.260;2023-08-07T16:14:43;11.63;;;2.30;;
82417;SDS011;72059;53.734;10.260;2023-08-07T16:17:11;8.83;;;2.87;;
82417;SDS011;72059;53.734;10.260;2023-08-07T16:19:38;12.53;;;2.92;;
82417;SDS011;72059;53.734;10.260;2023-08-07T16:22:05;7.22;;;2.65;;
82417;SDS011;72059;53.734;10.260;2023-08-07T16:24:33;9.30;;;2.92;;
82417;SDS011;72059;53.734;10.260;2023-08-07T16:27:00;8.90;;;2.85;;
82417;SDS011;72059;53.734;10.260;2023-08-07T16:29:28;13.35;;;3.12;;
82417;SDS011;72059;53.734;10.260;2023-08-07T16:31:55;8.83;;;2.45;;
82417;SDS011;72059;53.734;10.260;2023-08-07T16:34:24;17.50;;;2.83;;
82417;SDS011;72059;53.734;10.260;2023-08-07T16:36:51;8.93;;;2.92;;
82417;SDS011;72059;53.734;10.260;2023-08-07T16:39:19;10.63;;;2.60;;
82417;SDS011;72059;53.734;10.260;2023-08-07T16:41:46;6.10;;;2.95;;
82417;SDS011;72059;53.734;10.260;2023-08-07T16:44:15;6.72;;;2.98;;
82417;SDS011;72059;53.734;10.260;2023-08-07T16:46:42;11.38;;;3.05;;
82417;SDS011;72059;53.734;10.260;2023-08-07T16:49:10;10.43;;;3.52;;
82417;SDS011;72059;53.734;10.260;2023-08-07T16:51:37;12.63;;;3.70;;
82417;SDS011;72059;53.734;10.260;2023-08-07T16:54:05;11.03;;;3.35;;
82417;SDS011;72059;53.734;10.260;2023-08-07T16:56:32;12.95;;;3.67;;
82417;SDS011;72059;53.734;10.260;2023-08-07T16:58:59;11.10;;;3.60;;
82417;SDS011;72059;53.734;10.260;2023-08-07T17:01:27;16.73;;;4.05;;
82417;SDS011;72059;53.734;10.260;2023-08-07T17:03:54;13.48;;;3.98;;
82417;SDS011;72059;53.734;10.260;2023-08-07T17:06:22;14.73;;;4.25;;
82417;SDS011;72059;53.734;10.260;2023-08-07T17:08:49;16.80;;;3.77;;
82417;SDS011;72059;53.734;10.260;2023-08-07T17:11:22;15.00;;;4.03;;
82417;SDS011;72059;53.734;10.260;2023-08-07T17:13:48;10.08;;;3.85;;
82417;SDS011;72059;53.734;10.260;2023-08-07T17:16:15;10.85;;;3.25;;
82417;SDS011;72059;53.734;10.260;2023-08-07T17:18:43;14.43;;;4.03;;
82417;SDS011;72059;53.734;10.260;2023-08-07T17:21:11;9.55;;;3.37;;
82417;SDS011;72059;53.734;10.260;2023-08-07T17:23:38;10.53;;;3.40;;
82417;SDS011;72059;53.734;10.260;2023-08-07T17:26:06;12.90;;;3.70;;
82417;SDS011;72059;53.734;10.260;2023-08-07T17:28:34;9.18;;;3.92;;
82417;SDS011;72059;53.734;10.260;2023-08-07T17:31:02;13.93;;;3.55;;
82417;SDS011;72059;53.734;10.260;2023-08-07T17:33:30;9.53;;;2.85;;
82417;SDS011;72059;53.734;10.260;2023-08-07T17:35:59;10.55;;;3.47;;
82417;SDS011;72059;53.734;10.260;2023-08-07T17:38:27;11.33;;;3.27;;
82417;SDS011;72059;53.734;10.260;2023-08-07T17:40:54;13.62;;;3.75;;
82417;SDS011;72059;53.734;10.260;2023-08-07T17:43:22;16.67;;;4.00;;
82417;SDS011;72059;53.734;10.260;2023-08-07T17:45:49;13.00;;;4.17;;
82417;SDS011;72059;53.734;10.260;2023-08-07T17:48:17;9.55;;;3.67;;
82417;SDS011;72059;53.734;10.260;2023-08-07T17:50:44;12.20;;;3.65;;
82417;SDS011;72059;53.734;10.260;2023-08-07T17:53:11;13.40;;;3.20;;
82417;SDS011;72059;53.734;10.260;2023-08-07T17:55:39;12.55;;;3.83;;
82417;SDS011;72059;53.734;10.260;2023-08-07T17:58:06;13.40;;;3.72;;
82417;SDS011;72059;53.734;10.260;2023-08-07T18:00:35;14.40;;;4.42;;
82417;SDS011;72059;53.734;10.260;2023-08-07T18:03:02;9.23;;;3.58;;
82417;SDS011;72059;53.734;10.260;2023-08-07T18:05:31;11.85;;;4.20;;
82417;SDS011;72059;53.734;10.260;2023-08-07T18:07:58;13.18;;;3.65;;
82417;SDS011;72059;53.734;10.260;2023-08-07T18:10:26;13.38;;;4.45;;
82417;SDS011;72059;53.734;10.260;2023-08-07T18:12:53;18.17;;;5.20;;
82417;SDS011;72059;53.734;10.260;2023-08-07T18:15:21;13.10;;;3.95;;
82417;SDS011;72059;53.734;10.260;2023-08-07T18:17:48;12.50;;;4.00;;
82417;SDS011;72059;53.734;10.260;2023-08-07T18:20:16;14.85;;;4.33;;
82417;SDS011;72059;53.734;10.260;2023-08-07T18:22:44;12.43;;;3.50;;
82417;SDS011;72059;53.734;10.260;2023-08-07T18:25:11;14.53;;;4.17;;
82417;SDS011;72059;53.734;10.260;2023-08-07T18:27:38;15.25;;;3.58;;
82417;SDS011;72059;53.734;10.260;2023-08-07T18:30:06;18.12;;;4.33;;
82417;SDS011;72059;53.734;10.260;2023-08-07T18:32:34;12.20;;;3.52;;
82417;SDS011;72059;53.734;10.260;2023-08-07T18:35:03;12.20;;;4.08;;
82417;SDS011;72059;53.734;10.260;2023-08-07T18:37:31;15.83;;;3.87;;
82417;SDS011;72059;53.734;10.260;2023-08-07T18:39:59;8.98;;;3.42;;
82417;SDS011;72059;53.734;10.260;2023-08-07T18:42:26;14.28;;;4.10;;
82417;SDS011;72059;53.734;10.260;2023-08-07T18:44:54;10.78;;;3.60;;
82417;SDS011;72059;53.734;10.260;2023-08-07T18:47:21;14.15;;;4.00;;
82417;SDS011;72059;53.734;10.260;2023-08-07T18:49:49;12.00;;;4.12;;
82417;SDS011;72059;53.734;10.260;2023-08-07T18:52:16;14.05;;;3.83;;
82417;SDS011;72059;53.734;10.260;2023-08-07T18:54:44;11.73;;;3.58;;
82417;SDS011;72059;53.734;10.260;2023-08-07T18:57:11;15.65;;;3.87;;
82417;SDS011;72059;53.734;10.260;2023-08-07T18:59:38;9.08;;;3.17;;
82417;SDS011;72059;53.734;10.260;2023-08-07T19:02:06;13.75;;;3.52;;
82417;SDS011;72059;53.734;10.260;2023-08-07T19:04:33;12.53;;;3.75;;
82417;SDS011;72059;53.734;10.260;2023-08-07T19:07:01;12.37;;;3.80;;
82417;SDS011;72059;53.734;10.260;2023-08-07T19:09:28;11.78;;;3.95;;
82417;SDS011;72059;53.734;10.260;2023-08-07T19:11:56;14.58;;;3.70;;
82417;SDS011;72059;53.734;10.260;2023-08-07T19:14:23;11.05;;;3.52;;
82417;SDS011;72059;53.734;10.260;2023-08-07T19:16:50;15.60;;;5.17;;
82417;SDS011;72059;53.734;10.260;2023-08-07T19:19:18;13.20;;;4.37;;
82417;SDS011;72059;53.734;10.260;2023-08-07T19:21:46;11.80;;;4.33;;
82417;SDS011;72059;53.734;10.260;2023-08-07T19:24:14;15.35;;;3.92;;
82417;SDS011;72059;53.734;10.260;2023-08-07T19:26:41;13.20;;;4.00;;
82417;SDS011;72059;53.734;10.260;2023-08-07T19:29:08;18.05;;;4.30;;
82417;SDS011;72059;53.734;10.260;2023-08-07T19:31:37;14.65;;;4.65;;
82417;SDS011;72059;53.734;10.260;2023-08-07T19:34:05;11.65;;;3.85;;
82417;SDS011;72059;53.734;10.260;2023-08-07T19:36:34;19.23;;;4.30;;
82417;SDS011;72059;53.734;10.260;2023-08-07T19:39:03;14.23;;;4.70;;
82417;SDS011;72059;53.734;10.260;2023-08-07T19:41:30;18.50;;;5.35;;
82417;SDS011;72059;53.734;10.260;2023-08-07T19:43:59;11.97;;;4.65;;
82417;SDS011;72059;53.734;10.260;2023-08-07T19:46:27;16.77;;;5.20;;
82417;SDS011;72059;53.734;10.260;2023-08-07T19:48:54;19.82;;;4.90;;
82417;SDS011;72059;53.734;10.260;2023-08-07T19:51:22;16.65;;;5.05;;
82417;SDS011;72059;53.734;10.260;2023-08-07T19:53:49;22.80;;;6.12;;
82417;SDS011;72059;53.734;10.260;2023-08-07T19:56:17;13.88;;;5.50;;
82417;SDS011;72059;53.734;10.260;2023-08-07T19:58:44;14.58;;;5.55;;
82417;SDS011;72059;53.734;10.260;2023-08-07T20:01:11;20.15;;;6.03;;
82417;SDS011;72059;53.734;10.260;2023-08-07T20:03:39;18.95;;;5.17;;
82417;SDS011;72059;53.734;10.260;2023-08-07T20:06:06;19.55;;;5.50;;
82417;SDS011;72059;53.734;10.260;2023-08-07T20:08:34;14.68;;;4.83;;
82417;SDS011;72059;53.734;10.260;2023-08-07T20:11:01;13.13;;;4.17;;
82417;SDS011;72059;53.734;10.260;2023-08-07T20:13:30;16.60;;;4.53;;
82417;SDS011;72059;53.734;10.260;2023-08-07T20:15:58;12.33;;;4.05;;
82417;SDS011;72059;53.734;10.260;2023-08-07T20:18:26;21.10;;;5.08;;
82417;SDS011;72059;53.734;10.260;2023-08-07T20:20:54;12.53;;;3.42;;
82417;SDS011;72059;53.734;10.260;2023-08-07T20:23:21;13.60;;;4.58;;
82417;SDS011;72059;53.734;10.260;2023-08-07T20:25:50;10.50;;;3.95;;
82417;SDS011;72059;53.734;10.260;2023-08-07T20:28:17;15.68;;;4.80;;
82417;SDS011;72059;53.734;10.260;2023-08-07T20:30:45;15.55;;;4.42;;
82417;SDS011;72059;53.734;10.260;2023-08-07T20:33:12;13.48;;;4.28;;
82417;SDS011;72059;53.734;10.260;2023-08-07T20:35:40;9.35;;;3.62;;
82417;SDS011;72059;53.734;10.260;2023-08-07T20:38:07;10.38;;;3.45;;
82417;SDS011;72059;53.734;10.260;2023-08-07T20:40:35;14.20;;;4.08;;
82417;SDS011;72059;53.734;10.260;2023-08-07T20:43:02;14.40;;;3.92;;
82417;SDS011;72059;53.734;10.260;2023-08-07T20:45:29;11.63;;;3.62;;
82417;SDS011;72059;53.734;10.260;2023-08-07T20:47:57;9.65;;;3.40;;
82417;SDS011;72059;53.734;10.260;2023-08-07T20:50:24;14.23;;;3.72;;
82417;SDS011;72059;53.734;10.260;2023-08-07T20:52:52;11.48;;;3.70;;
82417;SDS011;72059;53.734;10.260;2023-08-07T20:55:19;14.70;;;3.67;;
82417;SDS011;72059;53.734;10.260;2023-08-07T20:57:47;13.68;;;3.75;;
82417;SDS011;72059;53.734;10.260;2023-08-07T21:00:14;13.08;;;3.67;;
82417;SDS011;72059;53.734;10.260;2023-08-07T21:02:42;13.40;;;4.03;;
82417;SDS011;72059;53.734;10.260;2023-08-07T21:05:09;9.55;;;3.35;;
82417;SDS011;72059;53.734;10.260;2023-08-07T21:07:37;10.05;;;3.40;;
82417;SDS011;72059;53.734;10.260;2023-08-07T21:10:04;9.78;;;2.62;;
82417;SDS011;72059;53.734;10.260;2023-08-07T21:12:33;12.47;;;3.25;;
82417;SDS011;72059;53.734;10.260;2023-08-07T21:15:00;10.40;;;3.35;;
82417;SDS011;72059;53.734;10.260;2023-08-07T21:17:30;8.58;;;3.35;;
82417;SDS011;72059;53.734;10.260;2023-08-07T21:19:57;12.37;;;3.62;;
82417;SDS011;72059;53.734;10.260;2023-08-07T21:22:25;10.40;;;2.80;;
82417;SDS011;72059;53.734;10.260;2023-08-07T21:24:52;15.93;;;4.17;;
82417;SDS011;72059;53.734;10.260;2023-08-07T21:27:20;14.45;;;3.60;;
82417;SDS011;72059;53.734;10.260;2023-08-07T21:29:48;10.15;;;2.83;;
82417;SDS011;72059;53.734;10.260;2023-08-07T21:32:15;7.10;;;3.08;;
82417;SDS011;72059;53.734;10.260;2023-08-07T21:34:43;7.83;;;3.12;;
82417;SDS011;72059;53.734;10.260;2023-08-07T21:37:10;8.00;;;3.15;;
82417;SDS011;72059;53.734;10.260;2023-08-07T21:39:38;13.78;;;3.27;;
82417;SDS011;72059;53.734;10.260;2023-08-07T21:42:05;9.40;;;3.08;;
82417;SDS011;72059;53.734;10.260;2023-08-07T21:44:33;8.20;;;2.90;;
82417;SDS011;72059;53.734;10.260;2023-08-07T21:47:00;10.13;;;3.55;;
82417;SDS011;72059;53.734;10.260;2023-08-07T21:49:28;9.43;;;3.25;;
82417;SDS011;72059;53.734;10.260;2023-08-07T21:51:56;12.30;;;3.30;;
82417;SDS011;72059;53.734;10.260;2023-08-07T21:54:23;11.08;;;2.65;;
82417;SDS011;72059;53.734;10.260;2023-08-07T21:56:51;10.72;;;3.10;;
82417;SDS011;72059;53.734;10.260;2023-08-07T21:59:18;11.40;;;2.95;;
82417;SDS011;72059;53.734;10.260;2023-08-07T22:01:45;13.83;;;3.05;;
82417;SDS011;72059;53.734;10.260;2023-08-07T22:04:13;12.53;;;2.95;;
82417;SDS011;72059;53.734;10.260;2023-08-07T22:06:40;8.70;;;2.75;;
82417;SDS011;72059;53.734;10.260;2023-08-07T22:09:08;12.10;;;2.65;;
82417;SDS011;72059;53.734;10.260;2023-08-07T22:11:35;10.20;;;3.05;;
82417;SDS011;72059;53.734;10.260;2023-08-07T22:14:03;9.60;;;3.02;;
82417;SDS011;72059;53.734;10.260;2023-08-07T22:16:30;8.53;;;3.05;;
82417;SDS011;72059;53.734;10.260;2023-08-07T22:18:58;11.57;;;2.92;;
82417;SDS011;72059;53.734;10.260;2023-08-07T22:21:25;8.73;;;3.08;;
82417;SDS011;72059;53.734;10.260;2023-08-07T22:23:52;10.63;;;2.70;;
82417;SDS011;72059;53.734;10.260;2023-08-07T22:26:20;7.97;;;2.87;;
82417;SDS011;72059;53.734;10.260;2023-08-07T22:28:48;10.40;;;2.70;;
82417;SDS011;72059;53.734;10.260;2023-08-07T22:31:16;13.72;;;3.20;;
82417;SDS011;72059;53.734;10.260;2023-08-07T22:33:43;6.47;;;3.00;;
82417;SDS011;72059;53.734;10.260;2023-08-07T22:36:11;9.23;;;2.90;;
82417;SDS011;72059;53.734;10.260;2023-08-07T22:38:40;10.82;;;2.70;;
82417;SDS011;72059;53.734;10.260;2023-08-07T22:41:08;8.48;;;2.58;;
82417;SDS011;72059;53.734;10.260;2023-08-07T22:43:35;7.65;;;2.85;;
82417;SDS011;72059;53.734;10.260;2023-08-07T22:46:02;9.78;;;2.90;;
82417;SDS011;72059;53.734;10.260;2023-08-07T22:48:30;8.68;;;2.80;;
82417;SDS011;72059;53.734;10.260;2023-08-07T22:50:57;9.00;;;2.58;;
82417;SDS011;72059;53.734;10.260;2023-08-07T22:53:25;7.90;;;2.70;;
82417;SDS011;72059;53.734;10.260;2023-08-07T22:55:52;7.58;;;2.52;;
82417;SDS011;72059;53.734;10.260;2023-08-07T22:58:20;5.83;;;2.70;;
82417;SDS011;72059;53.734;10.260;2023-08-07T23:00:49;6.15;;;2.30;;
82417;SDS011;72059;53.734;10.260;2023-08-07T23:03:17;12.78;;;3.47;;
82417;SDS011;72059;53.734;10.260;2023-08-07T23:05:44;11.40;;;3.10;;
82417;SDS011;72059;53.734;10.260;2023-08-07T23:08:12;6.72;;;2.70;;
82417;SDS011;72059;53.734;10.260;2023-08-07T23:10:39;7.12;;;2.37;;
82417;SDS011;72059;53.734;10.260;2023-08-07T23:13:07;12.30;;;2.98;;
82417;SDS011;72059;53.734;10.260;2023-08-07T23:15:34;8.20;;;2.67;;
82417;SDS011;72059;53.734;10.260;2023-08-07T23:18:03;8.45;;;3.20;;
82417;SDS011;72059;53.734;10.260;2023-08-07T23:20:30;10.58;;;2.62;;
82417;SDS011;72059;53.734;10.260;2023-08-07T23:22:58;6.47;;;2.60;;
82417;SDS011;72059;53.734;10.260;2023-08-07T23:25:25;10.20;;;2.60;;
82417;SDS011;72059;53.734;10.260;2023-08-07T23:27:53;4.28;;;2.30;;
82417;SDS011;72059;53.734;10.260;2023-08-07T23:30:20;5.10;;;2.60;;
82417;SDS011;72059;53.734;10.260;2023-08-07T23:32:48;9.18;;;2.67;;
82417;SDS011;72059;53.734;10.260;2023-08-07T23:35:15;9.90;;;3.12;;
82417;SDS011;72059;53.734;10.260;2023-08-07T23:37:43;8.80;;;2.87;;
82417;SDS011;72059;53.734;10.260;2023-08-07T23:40:10;10.58;;;2.70;;
82417;SDS011;72059;53.734;10.260;2023-08-07T23:42:38;7.28;;;2.40;;
82417;SDS011;72059;53.734;10.260;2023-08-07T23:45:06;7.40;;;2.62;;
82417;SDS011;72059;53.734;10.260;2023-08-07T23:47:34;6.60;;;2.75;;
82417;SDS011;72059;53.734;10.260;2023-08-07T23:50:01;9.43;;;2.80;;
82417;SDS011;72059;53.734;10.260;2023-08-07T23:52:29;8.68;;;3.05;;
82417;SDS011;72059;53.734;10.260;2023-08-07T23:54:56;6.17;;;3.25;;
82417;SDS011;72059;53.734;10.260;2023-08-07T23:57:24;7.10;;;2.95;;
82417;SDS011;72059;53.734;10.260;2023-08-07T23:59:52;5.50;;;2.72;;
